sensor_id;sensor_type;location;lat;lon;timestamp;P1;durP1;ratioP1;P2;durP2;ratioP2
1054;SDS011;516;51.482;7.120;2024-01-15T00:00:12;25.50;;;13.23;;
1054;SDS011;516;51.482;7.120;2024-01-15T00:05:42;50.80;;;20.70;;
1054;SDS011;516;51.482;7.120;2024-01-15T00:11:12;14.50;;;10.60;;
1054;SDS011;516;51.482;7.120;2024-01-15T00:16:41;53.27;;;22.07;;
1054;SDS011;516;51.482;7.120;2024-01-15T00:22:11;36.50;;;20.33;;
1054;SDS011;516;51.482;7.120;2024-01-15T00:27:41;28.80;;;18.10;;
1054;SDS011;516;51.482;7.120;2024-01-15T00:33:10;26.90;;;12.23;;
1054;SDS011;516;51.482;7.120;2024-01-15T00:38:41;42.40;;;16.20;;
1054;SDS011;516;51.482;7.120;2024-01-15T00:44:10;39.80;;;19.70;;
1054;SDS011;516;51.482;7.120;2024-01-15T00:49:40;45.43;;;23.90;;
1054;SDS011;516;51.482;7.120;2024-01-15T00:55:10;30.97;;;15.83;;
1054;SDS011;516;51.482;7.120;2024-01-15T01:00:40;40.77;;;19.03;;
1054;SDS011;516;51.482;7.120;2024-01-15T01:06:09;22.47;;;9.20;;
1054;SDS011;516;51.482;7.120;2024-01-15T01:11:39;27.80;;;16.67;;
1054;SDS011;516;51.482;7.120;2024-01-15T01:17:08;21.50;;;13.37;;
1054;SDS011;516;51.482;7.120;2024-01-15T01:22:38;43.23;;;22.27;;
1054;SDS011;516;51.482;7.120;2024-01-15T01:28:08;21.83;;;12.43;;
1054;SDS011;516;51.482;7.120;2024-01-15T01:33:38;21.37;;;10.80;;
1054;SDS011;516;51.482;7.120;2024-01-15T01:39:11;23.40;;;13.33;;
1054;SDS011;516;51.482;7.120;2024-01-15T01:44:41;16.17;;;9.20;;
1054;SDS011;516;51.482;7.120;2024-01-15T01:50:10;29.90;;;16.90;;
1054;SDS011;516;51.482;7.120;2024-01-15T01:55:40;24.40;;;14.50;;
1054;SDS011;516;51.482;7.120;2024-01-15T02:01:10;20.23;;;10.83;;
1054;SDS011;516;51.482;7.120;2024-01-15T02:12:47;20.97;;;12.27;;
1054;SDS011;516;51.482;7.120;2024-01-15T02:18:17;15.87;;;10.20;;
1054;SDS011;516;51.482;7.120;2024-01-15T02:23:46;22.70;;;13.27;;
1054;SDS011;516;51.482;7.120;2024-01-15T02:29:16;20.63;;;12.07;;
1054;SDS011;516;51.482;7.120;2024-01-15T02:34:46;12.90;;;9.23;;
1054;SDS011;516;51.482;7.120;2024-01-15T02:39:57;15.47;;;9.67;;
1054;SDS011;516;51.482;7.120;2024-01-15T02:45:27;24.00;;;13.37;;
1054;SDS011;516;51.482;7.120;2024-01-15T02:50:56;19.50;;;9.10;;
1054;SDS011;516;51.482;7.120;2024-01-15T02:56:26;22.27;;;13.43;;
1054;SDS011;516;51.482;7.120;2024-01-15T03:01:56;21.37;;;15.60;;
1054;SDS011;516;51.482;7.120;2024-01-15T03:16:35;30.60;;;13.47;;
1054;SDS011;516;51.482;7.120;2024-01-15T03:21:47;32.30;;;14.47;;
1054;SDS011;516;51.482;7.120;2024-01-15T03:27:16;19.27;;;13.60;;
1054;SDS011;516;51.482;7.120;2024-01-15T03:32:46;13.70;;;4.17;;
1054;SDS011;516;51.482;7.120;2024-01-15T03:38:16;13.10;;;9.00;;
1054;SDS011;516;51.482;7.120;2024-01-15T03:43:45;14.13;;;9.97;;
1054;SDS011;516;51.482;7.120;2024-01-15T03:49:15;22.20;;;5.87;;
1054;SDS011;516;51.482;7.120;2024-01-15T03:54:45;14.97;;;6.90;;
1054;SDS011;516;51.482;7.120;2024-01-15T04:00:14;9.20;;;6.57;;
1054;SDS011;516;51.482;7.120;2024-01-15T04:05:46;12.50;;;7.97;;
1054;SDS011;516;51.482;7.120;2024-01-15T04:20:23;10.67;;;7.53;;
1054;SDS011;516;51.482;7.120;2024-01-15T04:25:53;28.03;;;12.43;;
1054;SDS011;516;51.482;7.120;2024-01-15T04:31:23;21.60;;;12.50;;
1054;SDS011;516;51.482;7.120;2024-01-15T04:36:52;16.50;;;7.17;;
1054;SDS011;516;51.482;7.120;2024-01-15T04:42:22;18.47;;;11.63;;
1054;SDS011;516;51.482;7.120;2024-01-15T04:47:52;24.50;;;13.97;;
1054;SDS011;516;51.482;7.120;2024-01-15T04:53:21;7.30;;;6.10;;
1054;SDS011;516;51.482;7.120;2024-01-15T04:58:51;9.63;;;6.17;;
1054;SDS011;516;51.482;7.120;2024-01-15T05:04:21;17.03;;;10.73;;
1054;SDS011;516;51.482;7.120;2024-01-15T05:09:50;18.93;;;10.23;;
1054;SDS011;516;51.482;7.120;2024-01-15T05:15:20;26.03;;;13.73;;
1054;SDS011;516;51.482;7.120;2024-01-15T05:20:49;12.33;;;6.60;;
1054;SDS011;516;51.482;7.120;2024-01-15T05:26:21;13.57;;;6.30;;
1054;SDS011;516;51.482;7.120;2024-01-15T05:31:50;23.90;;;10.20;;
1054;SDS011;516;51.482;7.120;2024-01-15T05:37:20;15.00;;;8.70;;
1054;SDS011;516;51.482;7.120;2024-01-15T05:42:50;24.73;;;10.40;;
1054;SDS011;516;51.482;7.120;2024-01-15T05:48:19;12.17;;;7.17;;
1054;SDS011;516;51.482;7.120;2024-01-15T05:53:49;20.67;;;11.73;;
1054;SDS011;516;51.482;7.120;2024-01-15T05:59:19;10.97;;;7.47;;
1054;SDS011;516;51.482;7.120;2024-01-15T06:04:49;8.53;;;5.27;;
1054;SDS011;516;51.482;7.120;2024-01-15T06:10:18;9.27;;;6.40;;
1054;SDS011;516;51.482;7.120;2024-01-15T06:15:48;9.77;;;6.50;;
1054;SDS011;516;51.482;7.120;2024-01-15T06:21:17;12.97;;;9.50;;
1054;SDS011;516;51.482;7.120;2024-01-15T06:26:47;11.13;;;7.80;;
1054;SDS011;516;51.482;7.120;2024-01-15T06:32:17;13.97;;;8.83;;
1054;SDS011;516;51.482;7.120;2024-01-15T06:37:47;8.43;;;5.50;;
1054;SDS011;516;51.482;7.120;2024-01-15T06:43:17;9.50;;;5.83;;
1054;SDS011;516;51.482;7.120;2024-01-15T06:48:47;11.63;;;5.90;;
1054;SDS011;516;51.482;7.120;2024-01-15T06:54:17;9.37;;;4.77;;
1054;SDS011;516;51.482;7.120;2024-01-15T06:59:46;13.60;;;7.50;;
1054;SDS011;516;51.482;7.120;2024-01-15T07:05:16;15.07;;;10.23;;
1054;SDS011;516;51.482;7.120;2024-01-15T07:16:53;8.30;;;5.30;;
1054;SDS011;516;51.482;7.120;2024-01-15T07:22:23;5.87;;;3.90;;
1054;SDS011;516;51.482;7.120;2024-01-15T07:27:52;4.07;;;2.50;;
1054;SDS011;516;51.482;7.120;2024-01-15T07:33:22;4.83;;;3.30;;
1054;SDS011;516;51.482;7.120;2024-01-15T07:38:52;6.07;;;3.00;;
1054;SDS011;516;51.482;7.120;2024-01-15T07:43:49;6.07;;;4.17;;
1054;SDS011;516;51.482;7.120;2024-01-15T07:49:18;6.70;;;4.40;;
1054;SDS011;516;51.482;7.120;2024-01-15T07:54:48;2.73;;;2.50;;
1054;SDS011;516;51.482;7.120;2024-01-15T08:00:18;6.33;;;3.77;;
1054;SDS011;516;51.482;7.120;2024-01-15T08:05:47;9.63;;;4.13;;
1054;SDS011;516;51.482;7.120;2024-01-15T08:11:20;7.00;;;4.27;;
1054;SDS011;516;51.482;7.120;2024-01-15T08:16:50;13.40;;;6.33;;
1054;SDS011;516;51.482;7.120;2024-01-15T08:22:20;8.10;;;5.37;;
1054;SDS011;516;51.482;7.120;2024-01-15T08:27:49;16.70;;;7.47;;
1054;SDS011;516;51.482;7.120;2024-01-15T08:33:19;15.50;;;9.40;;
1054;SDS011;516;51.482;7.120;2024-01-15T08:38:49;12.77;;;8.43;;
1054;SDS011;516;51.482;7.120;2024-01-15T08:44:19;15.30;;;7.40;;
1054;SDS011;516;51.482;7.120;2024-01-15T08:49:49;9.03;;;6.63;;
1054;SDS011;516;51.482;7.120;2024-01-15T08:55:18;13.93;;;10.33;;
1054;SDS011;516;51.482;7.120;2024-01-15T09:00:51;15.33;;;10.27;;
1054;SDS011;516;51.482;7.120;2024-01-15T09:06:20;9.10;;;7.60;;
1054;SDS011;516;51.482;7.120;2024-01-15T09:21:01;11.17;;;7.93;;
1054;SDS011;516;51.482;7.120;2024-01-15T09:26:31;19.67;;;10.03;;
1054;SDS011;516;51.482;7.120;2024-01-15T09:32:01;17.60;;;9.20;;
1054;SDS011;516;51.482;7.120;2024-01-15T09:37:31;15.30;;;10.40;;
1054;SDS011;516;51.482;7.120;2024-01-15T09:43:01;12.43;;;8.23;;
1054;SDS011;516;51.482;7.120;2024-01-15T09:48:31;9.33;;;5.60;;
1054;SDS011;516;51.482;7.120;2024-01-15T09:54:02;10.83;;;7.33;;
1054;SDS011;516;51.482;7.120;2024-01-15T09:59:32;20.27;;;10.73;;
1054;SDS011;516;51.482;7.120;2024-01-15T10:05:02;9.57;;;6.47;;
1054;SDS011;516;51.482;7.120;2024-01-15T10:10:32;12.80;;;7.63;;
1054;SDS011;516;51.482;7.120;2024-01-15T10:16:01;14.33;;;9.07;;
1054;SDS011;516;51.482;7.120;2024-01-15T10:21:32;20.87;;;8.73;;
1054;SDS011;516;51.482;7.120;2024-01-15T10:27:05;14.30;;;9.13;;
1054;SDS011;516;51.482;7.120;2024-01-15T10:32:35;13.67;;;8.60;;
1054;SDS011;516;51.482;7.120;2024-01-15T10:38:05;15.40;;;9.80;;
1054;SDS011;516;51.482;7.120;2024-01-15T10:43:36;10.70;;;6.60;;
1054;SDS011;516;51.482;7.120;2024-01-15T10:49:06;16.10;;;7.37;;
1054;SDS011;516;51.482;7.120;2024-01-15T10:54:36;10.93;;;6.63;;
1054;SDS011;516;51.482;7.120;2024-01-15T11:00:06;9.23;;;5.90;;
1054;SDS011;516;51.482;7.120;2024-01-15T11:05:43;13.97;;;10.87;;
1054;SDS011;516;51.482;7.120;2024-01-15T11:11:13;12.30;;;6.67;;
1054;SDS011;516;51.482;7.120;2024-01-15T11:17:01;8.17;;;4.80;;
1054;SDS011;516;51.482;7.120;2024-01-15T11:28:03;8.67;;;4.30;;
1054;SDS011;516;51.482;7.120;2024-01-15T11:33:32;10.20;;;4.60;;
1054;SDS011;516;51.482;7.120;2024-01-15T11:39:38;15.50;;;8.50;;
1054;SDS011;516;51.482;7.120;2024-01-15T11:45:11;6.87;;;4.90;;
1054;SDS011;516;51.482;7.120;2024-01-15T11:50:47;5.20;;;4.10;;
1054;SDS011;516;51.482;7.120;2024-01-15T11:56:20;6.73;;;5.47;;
1054;SDS011;516;51.482;7.120;2024-01-15T12:01:51;8.83;;;4.47;;
1054;SDS011;516;51.482;7.120;2024-01-15T12:07:20;5.30;;;3.50;;
1054;SDS011;516;51.482;7.120;2024-01-15T12:16:10;7.63;;;5.57;;
1054;SDS011;516;51.482;7.120;2024-01-15T12:21:40;5.57;;;4.77;;
1054;SDS011;516;51.482;7.120;2024-01-15T12:27:10;5.40;;;4.50;;
1054;SDS011;516;51.482;7.120;2024-01-15T12:32:41;6.13;;;5.07;;
1054;SDS011;516;51.482;7.120;2024-01-15T12:38:10;4.70;;;4.30;;
1054;SDS011;516;51.482;7.120;2024-01-15T12:43:40;4.53;;;3.23;;
1054;SDS011;516;51.482;7.120;2024-01-15T12:49:10;5.13;;;4.23;;
1054;SDS011;516;51.482;7.120;2024-01-15T12:54:40;5.73;;;4.50;;
1054;SDS011;516;51.482;7.120;2024-01-15T13:00:09;10.17;;;6.30;;
1054;SDS011;516;51.482;7.120;2024-01-15T13:05:43;4.60;;;4.13;;
1054;SDS011;516;51.482;7.120;2024-01-15T13:11:14;5.07;;;4.53;;
1054;SDS011;516;51.482;7.120;2024-01-15T13:16:43;4.97;;;4.47;;
1054;SDS011;516;51.482;7.120;2024-01-15T13:22:13;10.87;;;5.67;;
1054;SDS011;516;51.482;7.120;2024-01-15T13:27:43;9.20;;;6.27;;
1054;SDS011;516;51.482;7.120;2024-01-15T13:33:13;7.00;;;4.70;;
1054;SDS011;516;51.482;7.120;2024-01-15T13:38:42;7.40;;;5.93;;
1054;SDS011;516;51.482;7.120;2024-01-15T13:44:12;5.27;;;4.37;;
1054;SDS011;516;51.482;7.120;2024-01-15T13:49:41;7.33;;;4.27;;
1054;SDS011;516;51.482;7.120;2024-01-15T13:55:11;4.67;;;3.00;;
1054;SDS011;516;51.482;7.120;2024-01-15T14:00:41;4.90;;;4.13;;
1054;SDS011;516;51.482;7.120;2024-01-15T14:06:11;9.33;;;6.83;;
1054;SDS011;516;51.482;7.120;2024-01-15T14:11:40;9.17;;;6.20;;
1054;SDS011;516;51.482;7.120;2024-01-15T14:23:17;10.53;;;4.93;;
1054;SDS011;516;51.482;7.120;2024-01-15T14:28:47;5.63;;;3.77;;
1054;SDS011;516;51.482;7.120;2024-01-15T14:34:17;10.27;;;6.60;;
1054;SDS011;516;51.482;7.120;2024-01-15T14:39:47;7.57;;;4.60;;
1054;SDS011;516;51.482;7.120;2024-01-15T14:45:17;9.27;;;5.00;;
1054;SDS011;516;51.482;7.120;2024-01-15T14:50:46;4.87;;;3.10;;
1054;SDS011;516;51.482;7.120;2024-01-15T14:56:16;8.90;;;6.00;;
1054;SDS011;516;51.482;7.120;2024-01-15T15:01:46;2.40;;;2.20;;
1054;SDS011;516;51.482;7.120;2024-01-15T15:07:16;11.30;;;6.30;;
1054;SDS011;516;51.482;7.120;2024-01-15T15:12:46;54.87;;;4.30;;
1054;SDS011;516;51.482;7.120;2024-01-15T15:27:26;8.17;;;4.03;;
1054;SDS011;516;51.482;7.120;2024-01-15T15:32:57;7.03;;;4.70;;
1054;SDS011;516;51.482;7.120;2024-01-15T15:38:27;11.20;;;3.70;;
1054;SDS011;516;51.482;7.120;2024-01-15T15:43:56;4.77;;;2.87;;
1054;SDS011;516;51.482;7.120;2024-01-15T15:49:26;3.97;;;3.17;;
1054;SDS011;516;51.482;7.120;2024-01-15T15:54:55;9.80;;;6.60;;
1054;SDS011;516;51.482;7.120;2024-01-15T16:00:25;10.43;;;4.37;;
1054;SDS011;516;51.482;7.120;2024-01-15T16:05:55;5.40;;;4.00;;
1054;SDS011;516;51.482;7.120;2024-01-15T16:11:25;12.30;;;3.40;;
1054;SDS011;516;51.482;7.120;2024-01-15T16:16:55;15.93;;;10.43;;
1054;SDS011;516;51.482;7.120;2024-01-15T16:22:26;12.37;;;8.13;;
1054;SDS011;516;51.482;7.120;2024-01-15T16:27:56;6.40;;;3.80;;
1054;SDS011;516;51.482;7.120;2024-01-15T16:33:25;8.10;;;4.87;;
1054;SDS011;516;51.482;7.120;2024-01-15T16:38:55;7.47;;;3.87;;
1054;SDS011;516;51.482;7.120;2024-01-15T16:44:25;13.87;;;6.67;;
1054;SDS011;516;51.482;7.120;2024-01-15T16:49:56;6.03;;;4.37;;
1054;SDS011;516;51.482;7.120;2024-01-15T16:55:26;5.37;;;4.33;;
1054;SDS011;516;51.482;7.120;2024-01-15T17:00:59;13.50;;;7.70;;
1054;SDS011;516;51.482;7.120;2024-01-15T17:06:31;13.93;;;6.80;;
1054;SDS011;516;51.482;7.120;2024-01-15T17:12:02;15.23;;;9.63;;
1054;SDS011;516;51.482;7.120;2024-01-15T17:17:32;9.80;;;7.10;;
1054;SDS011;516;51.482;7.120;2024-01-15T17:32:02;17.87;;;11.20;;
1054;SDS011;516;51.482;7.120;2024-01-15T17:37:32;8.40;;;6.70;;
1054;SDS011;516;51.482;7.120;2024-01-15T17:43:01;6.43;;;4.77;;
1054;SDS011;516;51.482;7.120;2024-01-15T17:48:31;10.33;;;7.30;;
1054;SDS011;516;51.482;7.120;2024-01-15T17:54:01;5.43;;;4.10;;
1054;SDS011;516;51.482;7.120;2024-01-15T17:59:32;11.00;;;6.73;;
1054;SDS011;516;51.482;7.120;2024-01-15T18:05:02;6.97;;;4.27;;
1054;SDS011;516;51.482;7.120;2024-01-15T18:10:32;10.93;;;5.73;;
1054;SDS011;516;51.482;7.120;2024-01-15T18:16:02;14.37;;;8.90;;
1054;SDS011;516;51.482;7.120;2024-01-15T18:21:32;3.60;;;2.97;;
1054;SDS011;516;51.482;7.120;2024-01-15T18:27:02;6.60;;;5.37;;
1054;SDS011;516;51.482;7.120;2024-01-15T18:32:32;6.23;;;4.80;;
1054;SDS011;516;51.482;7.120;2024-01-15T18:38:02;8.10;;;4.33;;
1054;SDS011;516;51.482;7.120;2024-01-15T18:43:31;9.80;;;7.10;;
1054;SDS011;516;51.482;7.120;2024-01-15T18:49:01;8.83;;;4.40;;
1054;SDS011;516;51.482;7.120;2024-01-15T18:54:31;13.90;;;7.87;;
1054;SDS011;516;51.482;7.120;2024-01-15T19:00:00;10.20;;;7.07;;
1054;SDS011;516;51.482;7.120;2024-01-15T19:05:30;5.67;;;4.50;;
1054;SDS011;516;51.482;7.120;2024-01-15T19:11:00;8.27;;;5.97;;
1054;SDS011;516;51.482;7.120;2024-01-15T19:16:29;6.53;;;5.37;;
1054;SDS011;516;51.482;7.120;2024-01-15T19:22:00;5.77;;;4.90;;
1054;SDS011;516;51.482;7.120;2024-01-15T19:36:37;16.20;;;12.03;;
1054;SDS011;516;51.482;7.120;2024-01-15T19:42:08;24.37;;;5.00;;
1054;SDS011;516;51.482;7.120;2024-01-15T19:47:38;5.20;;;4.03;;
1054;SDS011;516;51.482;7.120;2024-01-15T19:53:08;8.73;;;5.60;;
1054;SDS011;516;51.482;7.120;2024-01-15T19:58:37;10.47;;;6.53;;
1054;SDS011;516;51.482;7.120;2024-01-15T20:04:07;19.43;;;4.60;;
1054;SDS011;516;51.482;7.120;2024-01-15T20:09:36;13.53;;;4.30;;
1054;SDS011;516;51.482;7.120;2024-01-15T20:15:06;9.13;;;4.23;;
1054;SDS011;516;51.482;7.120;2024-01-15T20:20:36;3.80;;;2.53;;
1054;SDS011;516;51.482;7.120;2024-01-15T20:26:06;5.30;;;3.93;;
1054;SDS011;516;51.482;7.120;2024-01-15T20:31:36;8.47;;;3.37;;
1054;SDS011;516;51.482;7.120;2024-01-15T20:37:05;4.83;;;4.37;;
1054;SDS011;516;51.482;7.120;2024-01-15T20:42:35;6.30;;;4.40;;
1054;SDS011;516;51.482;7.120;2024-01-15T20:48:05;5.00;;;2.80;;
1054;SDS011;516;51.482;7.120;2024-01-15T20:53:34;6.50;;;5.30;;
1054;SDS011;516;51.482;7.120;2024-01-15T20:59:04;6.17;;;3.53;;
1054;SDS011;516;51.482;7.120;2024-01-15T21:04:33;10.63;;;5.27;;
1054;SDS011;516;51.482;7.120;2024-01-15T21:10:03;8.13;;;5.40;;
1054;SDS011;516;51.482;7.120;2024-01-15T21:15:33;8.73;;;5.77;;
1054;SDS011;516;51.482;7.120;2024-01-15T21:21:03;9.60;;;5.60;;
1054;SDS011;516;51.482;7.120;2024-01-15T21:26:33;14.37;;;7.17;;
1054;SDS011;516;51.482;7.120;2024-01-15T21:41:13;30.17;;;6.47;;
1054;SDS011;516;51.482;7.120;2024-01-15T21:46:43;9.23;;;5.47;;
1054;SDS011;516;51.482;7.120;2024-01-15T21:52:13;6.47;;;4.90;;
1054;SDS011;516;51.482;7.120;2024-01-15T21:57:43;5.27;;;4.30;;
1054;SDS011;516;51.482;7.120;2024-01-15T22:03:12;8.80;;;5.77;;
1054;SDS011;516;51.482;7.120;2024-01-15T22:08:43;10.33;;;5.80;;
1054;SDS011;516;51.482;7.120;2024-01-15T22:14:13;9.80;;;6.80;;
1054;SDS011;516;51.482;7.120;2024-01-15T22:19:43;14.00;;;9.33;;
1054;SDS011;516;51.482;7.120;2024-01-15T22:25:13;11.83;;;8.33;;
1054;SDS011;516;51.482;7.120;2024-01-15T22:30:42;6.40;;;4.30;;
1054;SDS011;516;51.482;7.120;2024-01-15T22:45:16;10.40;;;7.20;;
1054;SDS011;516;51.482;7.120;2024-01-15T22:50:46;8.23;;;5.97;;
1054;SDS011;516;51.482;7.120;2024-01-15T22:56:19;10.93;;;7.00;;
1054;SDS011;516;51.482;7.120;2024-01-15T23:01:48;20.43;;;9.63;;
1054;SDS011;516;51.482;7.120;2024-01-15T23:07:18;12.17;;;7.87;;
1054;SDS011;516;51.482;7.120;2024-01-15T23:12:48;12.30;;;8.97;;
1054;SDS011;516;51.482;7.120;2024-01-15T23:18:18;11.27;;;6.90;;
1054;SDS011;516;51.482;7.120;2024-01-15T23:23:47;9.10;;;6.50;;
1054;SDS011;516;51.482;7.120;2024-01-15T23:29:17;13.90;;;6.00;;
1054;SDS011;516;51.482;7.120;2024-01-15T23:34:46;11.90;;;7.83;;
1054;SDS011;516;51.482;7.120;2024-01-15T23:40:17;14.73;;;6.60;;
1054;SDS011;516;51.482;7.120;2024-01-15T23:45:46;8.37;;;5.67;;
1054;SDS011;516;51.482;7.120;2024-01-15T23:51:16;9.13;;;5.50;;
1054;SDS011;516;51.482;7.120;2024-01-15T23:56:46;15.47;;;9.20;;
